Time;durP1;ratioP1;P1;durP2;ratioP2;P2;SDS_P1;SDS_P2;PMS_P1;PMS_P2;Temp;Humidity;BMP_temperature;BMP_pressure;BME280_temperature;BME280_humidity;BME280_pressure;Samples;Min_cycle;Max_cycle;Signal;HPM_P1;HPM_P2
2023/03/15 00:01:02;;;;;;;5.95;1.25;;;;;;;0.95;100.00;101301.84;5113041;28;20035;-70
2023/03/15 00:03:27;;;;;;;5.15;1.30;;;;;;;0.89;100.00;101299.50;5113623;28;20032;-70
2023/03/15 00:05:53;;;;;;;5.40;1.20;;;;;;;0.87;100.00;101303.97;5114121;28;20028;-70
2023/03/15 00:08:20;;;;;;;2.53;0.88;;;;;;;0.83;100.00;101298.00;5112993;28;20149;-70
2023/03/15 00:10:46;;;;;;;5.20;1.02;;;;;;;0.81;100.00;101291.97;5113677;28;20107;-70
2023/03/15 00:13:13;;;;;;;6.25;1.08;;;;;;;0.82;100.00;101295.44;5113777;28;20062;-70
2023/03/15 00:15:49;;;;;;;6.25;1.38;;;;;;;0.81;100.00;101302.44;5113557;28;20042;-70
2023/03/15 00:18:17;;;;;;;5.60;1.15;;;;;;;0.81;100.00;101302.44;5113876;28;20030;-70
2023/03/15 00:20:43;;;;;;;5.95;1.10;;;;;;;0.76;100.00;101304.44;5113162;28;20047;-70
2023/03/15 00:23:09;;;;;;;4.57;0.98;;;;;;;0.72;100.00;101299.34;5112142;28;20047;-70
2023/03/15 00:25:35;;;;;;;3.05;1.00;;;;;;;0.62;100.00;101307.59;5113345;28;20209;-70
2023/03/15 00:28:00;;;;;;;3.45;0.93;;;;;;;0.55;100.00;101310.53;5113831;28;20494;-70
2023/03/15 00:30:26;;;;;;;7.22;1.15;;;;;;;0.47;100.00;101306.47;5111437;28;20475;-71
2023/03/15 00:32:52;;;;;;;2.53;0.70;;;;;;;0.45;100.00;101315.28;5113509;28;20023;-68
2023/03/15 00:35:18;;;;;;;2.65;0.90;;;;;;;0.38;100.00;101319.94;5111988;28;20050;-69
2023/03/15 00:37:44;;;;;;;24.73;1.75;;;;;;;0.32;100.00;101315.78;5112826;27;20082;-69
2023/03/15 00:40:11;;;;;;;8.50;1.08;;;;;;;0.28;100.00;101326.44;5113329;28;20480;-69
2023/03/15 00:42:37;;;;;;;15.55;1.75;;;;;;;0.25;100.00;101322.19;5112737;28;20028;-69
2023/03/15 00:45:03;;;;;;;3.00;0.88;;;;;;;0.28;100.00;101329.06;5113495;28;20104;-69
2023/03/15 00:47:29;;;;;;;4.15;1.00;;;;;;;0.29;100.00;101329.00;5112528;28;20031;-69
2023/03/15 00:49:55;;;;;;;6.53;1.27;;;;;;;0.32;100.00;101328.88;5112646;28;20389;-69
2023/03/15 00:52:20;;;;;;;2.95;0.52;;;;;;;0.39;100.00;101316.41;5111736;28;20467;-70
2023/03/15 00:54:52;;;;;;;2.65;1.00;;;;;;;0.43;100.00;101317.97;5112713;28;20039;-70
2023/03/15 00:57:18;;;;;;;7.32;1.23;;;;;;;0.38;100.00;101317.31;5112885;28;20031;-70
2023/03/15 00:59:43;;;;;;;5.97;0.80;;;;;;;0.31;100.00;101332.44;5112249;28;20110;-69
2023/03/15 01:02:09;;;;;;;8.27;0.80;;;;;;;0.23;100.00;101331.03;5113020;28;20387;-69
2023/03/15 01:04:35;;;;;;;4.30;1.08;;;;;;;0.14;100.00;101337.47;5112479;28;20080;-69
2023/03/15 01:07:00;;;;;;;4.63;0.80;;;;;;;0.06;100.00;101342.13;5111657;28;20403;-70
2023/03/15 01:09:25;;;;;;;2.85;0.75;;;;;;;-0.03;100.00;101352.06;5113025;28;20056;-69
2023/03/15 01:11:51;;;;;;;2.92;1.40;;;;;;;-0.06;100.00;101351.31;5112280;28;20028;-69
2023/03/15 01:14:17;;;;;;;6.80;0.77;;;;;;;-0.02;100.00;101352.91;5112863;28;20077;-69
2023/03/15 01:16:44;;;;;;;3.47;0.85;;;;;;;0.01;100.00;101354.56;5112246;28;20039;-69
2023/03/15 01:19:10;;;;;;;3.85;0.98;;;;;;;0.01;100.00;101352.78;5112722;28;20032;-69
2023/03/15 01:21:36;;;;;;;3.38;1.05;;;;;;;0.09;100.00;101362.94;5112288;28;20060;-70
2023/03/15 01:24:01;;;;;;;6.30;1.15;;;;;;;0.11;100.00;101362.00;5112050;28;20082;-69
2023/03/15 01:26:26;;;;;;;10.93;1.10;;;;;;;0.12;100.00;101365.44;5112734;28;20031;-69
2023/03/15 01:28:52;;;;;;;6.22;1.08;;;;;;;0.12;100.00;101363.69;5112104;28;20032;-69
2023/03/15 01:31:29;;;;;;;3.72;1.00;;;;;;;0.14;100.00;101364.47;5112828;28;20035;-69
2023/03/15 01:33:55;;;;;;;5.40;0.90;;;;;;;0.17;100.00;101376.59;5111141;28;20020;-70
2023/03/15 01:36:21;;;;;;;1.85;0.95;;;;;;;0.25;100.00;101381.53;5112352;28;20111;-69
2023/03/15 01:38:48;;;;;;;3.58;1.00;;;;;;;0.29;100.00;101381.34;5111064;28;20069;-69
2023/03/15 01:41:14;;;;;;;2.72;0.80;;;;;;;0.32;100.00;101394.31;5111518;28;20034;-69
2023/03/15 01:43:45;;;;;;;7.55;1.30;;;;;;;0.29;100.00;101389.22;5112190;28;20477;-70
2023/03/15 01:46:23;;;;;;;5.90;1.10;;;;;;;0.20;100.00;101397.44;5111451;28;20472;-69
2023/03/15 01:49:07;;;;;;;4.32;0.88;;;;;;;0.14;100.00;101398.50;5111899;28;20031;-69
2023/03/15 01:51:45;;;;;;;1.85;0.90;;;;;;;0.12;100.00;101397.72;5112672;28;20031;-69
2023/03/15 01:54:18;;;;;;;0.98;0.82;;;;;;;0.13;100.00;101403.78;5112663;28;20187;-69
2023/03/15 01:56:50;;;;;;;2.40;0.80;;;;;;;0.13;100.00;101409.03;5112154;28;20024;-69
2023/03/15 01:59:22;;;;;;;;;;;;;;;0.09;100.00;101417.91;5112993;28;20489;-69
2023/03/15 02:01:49;;;;;;;1.58;0.77;;;;;;;0.04;100.00;101415.47;5111852;28;20366;-70
2023/03/15 02:04:23;;;;;;;6.75;1.00;;;;;;;-0.03;100.00;101413.97;5112509;28;20127;-69
2023/03/15 02:06:57;;;;;;;1.90;0.70;;;;;;;-0.06;100.00;101416.72;5112405;28;20031;-70
2023/03/15 02:09:30;;;;;;;6.05;1.17;;;;;;;-0.07;100.00;101423.72;5112588;28;20120;-69
2023/03/15 02:11:56;;;;;;;4.88;1.05;;;;;;;-0.03;100.00;101425.31;5115997;28;20194;-69
2023/03/15 02:14:22;;;;;;;5.60;1.00;;;;;;;0.01;100.00;101423.44;5116245;28;20444;-69
2023/03/15 02:16:48;;;;;;;5.95;0.95;;;;;;;-0.04;100.00;101433.22;5115509;28;20028;-69
2023/03/15 02:19:42;;;;;;;8.00;1.42;;;;;;;-0.13;100.00;101429.19;5115880;28;20487;-69
2023/03/15 02:22:29;;;;;;;6.80;1.05;;;;;;;-0.12;100.00;101432.63;5115877;28;20028;-69
2023/03/15 02:25:20;;;;;;;2.13;0.88;;;;;;;-0.13;100.00;101431.78;5115818;28;20422;-69
2023/03/15 02:27:46;;;;;;;3.28;0.80;;;;;;;-0.07;100.00;101434.19;5114362;28;20023;-69
2023/03/15 02:30:12;;;;;;;8.48;1.20;;;;;;;-0.04;100.00;101433.22;5115937;28;20060;-69
2023/03/15 02:32:38;;;;;;;7.40;0.95;;;;;;;-0.06;100.00;101435.03;5114532;28;20118;-69
2023/03/15 02:35:03;;;;;;;21.73;1.13;;;;;;;-0.04;100.00;101441.06;5115168;28;20029;-69
2023/03/15 02:37:29;;;;;;;2.97;0.85;;;;;;;-0.06;100.00;101443.75;5114737;28;20059;-69
2023/03/15 02:39:54;;;;;;;3.67;0.82;;;;;;;-0.12;100.00;101450.94;5115340;28;20043;-69
2023/03/15 02:42:20;;;;;;;7.47;1.30;;;;;;;-0.23;100.00;101451.34;5115667;28;20031;-69
2023/03/15 02:44:47;;;;;;;6.82;1.33;;;;;;;-0.27;100.00;101453.22;5115331;28;20080;-70
2023/03/15 02:47:17;;;;;;;5.03;1.10;;;;;;;-0.30;100.00;101450.72;5115231;28;20050;-69
2023/03/15 02:49:49;;;;;;;8.57;1.05;;;;;;;-0.34;100.00;101462.19;5115484;27;20357;-69
2023/03/15 02:52:14;;;;;;;5.38;1.10;;;;;;;-0.37;100.00;101463.13;5115505;28;20027;-70
2023/03/15 02:54:42;;;;;;;5.75;1.00;;;;;;;-0.33;100.00;101466.47;5115536;28;20494;-69
2023/03/15 02:57:09;;;;;;;2.80;1.25;;;;;;;-0.23;100.00;101469.66;5115011;27;20031;-69
2023/03/15 02:59:35;;;;;;;5.13;1.30;;;;;;;-0.07;100.00;101486.50;5097465;28;20123;-69
2023/03/15 03:02:01;;;;;;;7.72;0.90;;;;;;;0.15;100.00;101489.22;5114965;27;20181;-69
2023/03/15 03:04:27;;;;;;;9.20;1.27;;;;;;;0.41;100.00;101510.09;5115284;28;20028;-69
2023/03/15 03:06:52;;;;;;;5.65;1.25;;;;;;;0.61;100.00;101520.69;5114925;27;20035;-69
2023/03/15 03:09:17;;;;;;;7.75;1.27;;;;;;;0.65;100.00;101534.50;5115254;28;20093;-69
2023/03/15 03:11:43;;;;;;;2.60;0.98;;;;;;;0.57;100.00;101533.91;5115140;28;20030;-69
2023/03/15 03:14:12;;;;;;;4.88;1.38;;;;;;;0.42;100.00;101528.38;5113361;28;20038;-69
2023/03/15 03:16:38;;;;;;;5.10;1.15;;;;;;;0.28;100.00;101522.78;5115027;28;20032;-70
2023/03/15 03:19:04;;;;;;;4.20;0.98;;;;;;;0.16;100.00;101519.72;5114627;28;20101;-70
2023/03/15 03:21:30;;;;;;;6.97;1.13;;;;;;;0.05;100.00;101519.22;5114684;27;20063;-70
2023/03/15 03:23:55;;;;;;;3.72;0.77;;;;;;;-0.03;100.00;101524.75;5114023;28;20059;-70
2023/03/15 03:26:20;;;;;;;4.68;1.10;;;;;;;-0.14;100.00;101521.63;5114922;28;20036;-69
2023/03/15 03:28:47;;;;;;;4.38;0.88;;;;;;;-0.22;100.00;101514.06;5114887;28;20042;-70
2023/03/15 03:31:18;;;;;;;4.35;1.02;;;;;;;-0.28;100.00;101508.19;5114323;28;20407;-70
2023/03/15 03:33:44;;;;;;;4.65;1.25;;;;;;;-0.31;100.00;101522.22;5114499;28;20131;-70
2023/03/15 03:36:11;;;;;;;3.88;1.10;;;;;;;-0.37;100.00;101525.06;5114229;28;20527;-70
2023/03/15 03:38:41;;;;;;;6.38;1.00;;;;;;;-0.47;100.00;101521.88;5114645;28;20062;-70
2023/03/15 03:41:07;;;;;;;6.18;0.90;;;;;;;-0.59;100.00;101533.59;5113852;28;20115;-70
2023/03/15 03:43:33;;;;;;;4.63;1.10;;;;;;;-0.72;100.00;101532.28;5114162;28;20023;-70
2023/03/15 03:45:58;;;;;;;6.22;1.10;;;;;;;-0.83;100.00;101534.41;5113642;28;20118;-70
2023/03/15 03:48:23;;;;;;;2.50;1.25;;;;;;;-0.94;100.00;101539.94;5113931;28;20040;-70
2023/03/15 03:50:49;;;;;;;6.30;1.20;;;;;;;-1.07;100.00;101552.56;5114430;28;20141;-70
2023/03/15 03:53:14;;;;;;;4.88;1.02;;;;;;;-1.14;100.00;101554.47;5113585;28;20492;-70
2023/03/15 03:55:41;;;;;;;4.30;1.00;;;;;;;-1.21;100.00;101562.53;5114368;28;20036;-70
2023/03/15 03:58:07;;;;;;;2.13;0.80;;;;;;;-1.30;100.00;101563.66;5113704;28;20038;-70
2023/03/15 04:00:32;;;;;;;3.53;1.58;;;;;;;-1.37;100.00;101575.19;5114236;28;20027;-68
2023/03/15 04:02:57;;;;;;;2.30;1.10;;;;;;;-1.43;100.00;101573.63;5113787;28;20032;-69
2023/03/15 04:05:23;;;;;;;3.17;0.98;;;;;;;-1.44;100.00;101577.13;5114116;28;20028;-70
2023/03/15 04:07:48;;;;;;;1.75;0.80;;;;;;;-1.43;100.00;101579.69;5112861;28;20031;-70
2023/03/15 04:10:14;;;;;;;3.70;1.08;;;;;;;-1.36;100.00;101579.53;5113547;28;20739;-70
2023/03/15 04:12:42;;;;;;;5.63;1.38;;;;;;;-1.28;100.00;101588.00;5113886;28;20031;-70
2023/03/15 04:15:07;;;;;;;4.57;1.10;;;;;;;-1.16;100.00;101597.25;5113433;28;20026;-70
2023/03/15 04:17:33;;;;;;;6.55;1.40;;;;;;;-1.02;100.00;101604.66;5113551;27;20555;-70
2023/03/15 04:20:00;;;;;;;6.72;1.60;;;;;;;-0.89;100.00;101614.69;5113133;28;20080;-70
2023/03/15 04:22:26;;;;;;;5.38;1.63;;;;;;;-0.72;100.00;101624.63;5113786;28;20036;-70
2023/03/15 04:24:52;;;;;;;4.32;1.02;;;;;;;-0.62;100.00;101613.88;5113212;28;20058;-70
2023/03/15 04:27:17;;;;;;;6.35;1.55;;;;;;;-0.56;100.00;101618.91;5113341;28;20039;-69
2023/03/15 04:29:43;;;;;;;5.25;1.52;;;;;;;-0.53;100.00;101624.06;5113306;28;20035;-69
2023/03/15 04:32:09;;;;;;;10.15;1.60;;;;;;;-0.56;100.00;101625.00;5112956;28;20043;-69
2023/03/15 04:34:37;;;;;;;9.15;1.38;;;;;;;-0.64;100.00;101626.13;5112931;28;20035;-70
2023/03/15 04:37:04;;;;;;;9.07;1.30;;;;;;;-0.74;100.00;101617.75;5111950;28;20035;-70
2023/03/15 04:39:29;;;;;;;4.63;1.40;;;;;;;-0.83;100.00;101624.09;5113806;28;20042;-69
2023/03/15 04:41:54;;;;;;;6.68;1.23;;;;;;;-0.89;100.00;101634.75;5113137;28;20024;-69
2023/03/15 04:44:20;;;;;;;5.70;1.17;;;;;;;-0.91;100.00;101639.13;5112841;28;20076;-69
2023/03/15 04:46:45;;;;;;;5.70;1.38;;;;;;;-0.96;100.00;101639.28;5113341;28;20055;-69
2023/03/15 04:49:10;;;;;;;7.70;1.25;;;;;;;-1.03;100.00;101636.88;5112650;28;20058;-69
2023/03/15 04:51:36;;;;;;;7.60;1.33;;;;;;;-1.15;100.00;101643.31;5111784;28;20436;-70
2023/03/15 04:54:02;;;;;;;7.70;1.35;;;;;;;-1.27;100.00;101645.41;5112661;28;20032;-71
2023/03/15 04:56:29;;;;;;;6.80;1.20;;;;;;;-1.36;100.00;101643.03;5112958;28;20383;-70
2023/03/15 04:58:54;;;;;;;5.40;1.10;;;;;;;-1.42;100.00;101643.19;5112730;28;20031;-69
2023/03/15 05:01:24;;;;;;;4.70;1.23;;;;;;;-1.46;100.00;101650.28;5112348;28;20054;-69
2023/03/15 05:03:49;;;;;;;6.07;1.00;;;;;;;-1.50;100.00;101650.41;5113284;28;20027;-69
2023/03/15 05:06:15;;;;;;;9.38;1.60;;;;;;;-1.58;100.00;101661.06;5112548;28;20531;-70
2023/03/15 05:08:44;;;;;;;10.00;1.45;;;;;;;-1.64;100.00;101650.78;5111707;28;20035;-69
2023/03/15 05:11:09;;;;;;;10.93;1.15;;;;;;;-1.71;100.00;101663.13;5111372;28;20073;-69
2023/03/15 05:13:35;;;;;;;4.82;1.10;;;;;;;-1.69;100.00;101669.16;5111869;28;20391;-69
2023/03/15 05:16:00;;;;;;;14.13;1.80;;;;;;;-1.62;100.00;101662.03;5112633;28;20039;-69
2023/03/15 05:18:25;;;;;;;5.80;1.50;;;;;;;-1.64;100.00;101663.84;5112164;28;20046;-69
2023/03/15 05:20:51;;;;;;;8.07;1.50;;;;;;;-1.70;100.00;101672.66;5111505;28;20032;-69
2023/03/15 05:23:16;;;;;;;7.10;1.30;;;;;;;-1.77;100.00;101674.56;5112063;28;20067;-70
2023/03/15 05:25:42;;;;;;;3.03;1.00;;;;;;;-1.82;100.00;101670.34;5113000;28;20110;-69
2023/03/15 05:28:07;;;;;;;7.85;1.70;;;;;;;-1.88;100.00;101671.41;5111171;28;20036;-70
2023/03/15 05:30:32;;;;;;;10.38;1.67;;;;;;;-1.93;100.00;101677.63;5111561;28;20036;-71
2023/03/15 05:32:58;;;;;;;5.90;1.20;;;;;;;-1.92;100.00;101679.34;5112632;28;20034;-69
2023/03/15 05:35:25;;;;;;;10.93;1.33;;;;;;;-1.93;100.00;101673.25;5112331;28;20024;-69
2023/03/15 05:37:53;;;;;;;4.85;1.95;;;;;;;-1.89;100.00;101682.72;5112756;28;20079;-69
2023/03/15 05:40:19;;;;;;;11.93;1.75;;;;;;;-1.82;100.00;101688.63;5112584;28;20076;-71
2023/03/15 05:42:44;;;;;;;8.32;1.92;;;;;;;-1.86;100.00;101693.06;5111875;28;20032;-71
2023/03/15 05:45:10;;;;;;;9.45;1.92;;;;;;;-1.90;100.00;101708.84;5112319;28;20047;-71
2023/03/15 05:47:35;;;;;;;14.32;1.98;;;;;;;-1.94;100.00;101702.84;5115754;28;20024;-71
2023/03/15 05:50:01;;;;;;;9.70;1.88;;;;;;;-1.90;100.00;101709.69;5117331;28;20115;-71
2023/03/15 05:52:26;;;;;;;16.73;2.67;;;;;;;-1.76;100.00;101717.19;5116752;28;20027;-70
2023/03/15 05:54:52;;;;;;;11.48;1.25;;;;;;;-1.64;100.00;101714.25;5115976;28;20032;-70
2023/03/15 05:57:17;;;;;;;10.02;2.03;;;;;;;-1.53;100.00;101720.97;5116646;28;20028;-70
2023/03/15 05:59:43;;;;;;;13.25;2.47;;;;;;;-1.51;100.00;101730.44;5117041;28;20127;-71
2023/03/15 06:02:08;;;;;;;20.85;2.92;;;;;;;-1.53;100.00;101728.78;5116714;28;20110;-72
2023/03/15 06:04:35;;;;;;;14.15;3.42;;;;;;;-1.57;100.00;101730.59;5098206;28;20057;-72
2023/03/15 06:07:00;;;;;;;13.30;3.40;;;;;;;-1.67;100.00;101736.94;5115653;28;20054;-72
2023/03/15 06:09:26;;;;;;;7.63;2.55;;;;;;;-1.77;100.00;101746.78;5116414;28;20036;-71
2023/03/15 06:11:52;;;;;;;11.75;2.15;;;;;;;-1.84;100.00;101750.44;5116422;28;20032;-72
2023/03/15 06:14:17;;;;;;;17.98;2.22;;;;;;;-1.91;100.00;101757.56;5116339;28;20093;-71
2023/03/15 06:16:43;;;;;;;6.97;1.70;;;;;;;-1.99;100.00;101756.88;5116749;28;20031;-72
2023/03/15 06:19:08;;;;;;;5.03;1.50;;;;;;;-2.05;100.00;101770.91;5116600;28;20062;-71
2023/03/15 06:21:33;;;;;;;8.55;2.15;;;;;;;-2.09;100.00;101776.22;5115048;28;20077;-71
2023/03/15 06:23:59;;;;;;;5.43;1.35;;;;;;;-2.15;100.00;101769.41;5115069;28;20535;-69
2023/03/15 06:26:24;;;;;;;8.88;1.58;;;;;;;-2.14;100.00;101776.34;5131743;27;20079;-69
2023/03/15 06:28:50;;;;;;;11.77;2.20;;;;;;;-2.15;100.00;101785.03;5116060;27;20032;-68
2023/03/15 06:31:15;;;;;;;15.05;5.03;;;;;;;-2.17;100.00;101785.06;5115709;28;20027;-70
2023/03/15 06:33:41;;;;;;;10.02;3.75;;;;;;;-2.18;100.00;101783.38;5116079;28;20497;-69
2023/03/15 06:36:06;;;;;;;10.20;3.33;;;;;;;-2.15;100.00;101787.66;5114792;28;20027;-69
2023/03/15 06:38:32;;;;;;;8.18;2.10;;;;;;;-2.14;100.00;101795.44;5114025;28;20505;-69
2023/03/15 06:41:03;;;;;;;10.25;2.50;;;;;;;-2.09;100.00;101792.75;5119634;27;20031;-69
2023/03/15 06:43:29;;;;;;;6.47;2.40;;;;;;;-2.05;100.00;101796.97;5123999;27;20114;-69
2023/03/15 06:45:57;;;;;;;5.38;1.77;;;;;;;-2.01;100.00;101803.00;5115360;27;20114;-69
2023/03/15 06:48:23;;;;;;;10.52;1.98;;;;;;;-1.98;100.00;101806.38;5117685;27;20352;-68
2023/03/15 06:50:48;;;;;;;8.35;2.03;;;;;;;-1.92;100.00;101805.41;5115681;28;20038;-68
2023/03/15 06:53:14;;;;;;;11.65;2.33;;;;;;;-1.85;100.00;101814.81;5115572;28;20036;-68
2023/03/15 06:55:39;;;;;;;10.93;2.40;;;;;;;-1.79;100.00;101816.41;5114513;27;20163;-68
2023/03/15 06:58:05;;;;;;;10.48;2.47;;;;;;;-1.69;100.00;101822.28;5115493;28;20042;-68
2023/03/15 07:00:30;;;;;;;8.23;2.83;;;;;;;-1.62;100.00;101822.06;5115026;28;20066;-70
2023/03/15 07:02:55;;;;;;;9.43;2.70;;;;;;;-1.54;100.00;101831.47;5115196;28;20032;-70
2023/03/15 07:05:21;;;;;;;11.80;2.83;;;;;;;-1.45;100.00;101839.97;5114814;28;20082;-69
2023/03/15 07:07:46;;;;;;;12.90;2.85;;;;;;;-1.32;100.00;101837.88;5115319;28;20028;-70
2023/03/15 07:10:11;;;;;;;5.15;2.17;;;;;;;-1.24;100.00;101840.31;5114995;28;20072;-68
2023/03/15 07:12:37;;;;;;;9.95;2.40;;;;;;;-1.15;100.00;101840.09;5114413;28;20035;-68
2023/03/15 07:15:03;;;;;;;8.27;2.72;;;;;;;-1.05;100.00;101845.94;5107488;27;20044;-67
2023/03/15 07:17:28;;;;;;;9.65;2.72;;;;;;;-0.92;100.00;101854.31;5091274;28;20464;-68
2023/03/15 07:19:53;;;;;;;8.73;2.05;;;;;;;-0.84;100.00;101844.50;5091653;28;20044;-68
2023/03/15 07:22:21;;;;;;;7.30;1.90;;;;;;;-0.74;100.00;101845.13;5091312;28;20124;-68
2023/03/15 07:24:47;;;;;;;8.25;2.35;;;;;;;-0.63;100.00;101861.34;5091204;28;20055;-68
2023/03/15 07:27:13;;;;;;;8.25;2.13;;;;;;;-0.54;100.00;101857.63;5106731;28;20473;-68
2023/03/15 07:29:40;;;;;;;8.52;1.90;;;;;;;-0.45;100.00;101856.53;5090807;28;20060;-69
2023/03/15 07:32:05;;;;;;;5.25;1.50;;;;;;;-0.37;100.00;101855.41;5090959;28;20118;-69
2023/03/15 07:34:31;;;;;;;7.80;1.45;;;;;;;-0.31;100.00;101854.38;5090822;28;20540;-68
2023/03/15 07:36:56;;;;;;;7.57;1.55;;;;;;;-0.26;100.00;101854.25;5091080;28;20503;-69
2023/03/15 07:39:22;;;;;;;3.97;1.08;;;;;;;-0.22;100.00;101858.50;5103223;28;20031;-68
2023/03/15 07:41:48;;;;;;;6.78;1.58;;;;;;;-0.14;100.00;101868.72;5111337;28;20099;-69
2023/03/15 07:44:13;;;;;;;9.50;1.55;;;;;;;-0.06;100.00;101877.19;5111416;28;20038;-69
2023/03/15 07:46:39;;;;;;;6.10;1.30;;;;;;;0.01;100.00;101883.97;5109533;28;20468;-69
2023/03/15 07:49:05;;;;;;;5.32;1.42;;;;;;;0.08;100.00;101893.34;5111230;28;20093;-70
2023/03/15 07:51:31;;;;;;;9.60;1.67;;;;;;;0.19;100.00;101890.41;5110102;28;20460;-71
2023/03/15 07:53:56;;;;;;;7.32;1.35;;;;;;;0.31;100.00;101890.06;5110676;28;20122;-69
2023/03/15 07:56:21;;;;;;;5.57;1.50;;;;;;;0.44;100.00;101894.91;5110696;28;20028;-70
2023/03/15 07:58:47;;;;;;;13.43;2.03;;;;;;;0.56;100.00;101899.75;5110264;28;20035;-71
2023/03/15 08:01:12;;;;;;;9.77;1.92;;;;;;;0.69;100.00;101900.22;5111096;28;20433;-71
2023/03/15 08:03:37;;;;;;;12.80;2.03;;;;;;;0.80;100.00;101907.72;5108877;28;20028;-71
2023/03/15 08:06:03;;;;;;;15.10;2.03;;;;;;;0.93;100.00;101921.31;5110917;28;20373;-71
2023/03/15 08:08:28;;;;;;;12.30;2.05;;;;;;;1.10;100.00;101921.59;5108154;28;20040;-73
2023/03/15 08:10:54;;;;;;;9.50;2.00;;;;;;;1.34;100.00;101919.88;5111023;28;20038;-70
2023/03/15 08:13:20;;;;;;;11.02;1.70;;;;;;;1.72;100.00;101925.56;5111144;27;20054;-71
2023/03/15 08:15:46;;;;;;;8.10;1.48;;;;;;;2.08;100.00;101926.88;5108872;28;20032;-70
2023/03/15 08:18:12;;;;;;;5.25;1.35;;;;;;;2.41;100.00;101929.16;5111060;28;20034;-70
2023/03/15 08:20:37;;;;;;;7.25;1.65;;;;;;;2.85;100.00;101926.50;5110741;28;20035;-70
2023/03/15 08:23:02;;;;;;;10.60;1.60;;;;;;;3.17;100.00;101935.69;5110599;28;20069;-70
2023/03/15 08:25:28;;;;;;;6.60;1.83;;;;;;;3.43;100.00;101935.50;5111099;27;20054;-71
2023/03/15 08:27:53;;;;;;;13.70;1.88;;;;;;;3.61;100.00;101942.59;5110312;28;20043;-73
2023/03/15 08:30:20;;;;;;;8.48;1.83;;;;;;;3.79;100.00;101942.72;5111075;28;20490;-70
2023/03/15 08:32:47;;;;;;;7.32;1.80;;;;;;;3.87;100.00;101930.94;5110590;28;20122;-69
2023/03/15 08:35:15;;;;;;;10.68;2.25;;;;;;;4.08;100.00;101932.66;5110920;28;20517;-69
2023/03/15 08:37:40;;;;;;;5.43;1.77;;;;;;;4.54;100.00;101933.16;5110669;28;20036;-69
2023/03/15 08:40:09;;;;;;;4.45;1.48;;;;;;;5.10;100.00;101928.66;5110532;28;20039;-69
2023/03/15 08:42:37;;;;;;;8.65;1.85;;;;;;;5.23;100.00;101932.38;5110078;28;20074;-69
2023/03/15 08:45:05;;;;;;;10.02;1.65;;;;;;;5.49;100.00;101922.28;5110330;28;20035;-67
2023/03/15 08:47:34;;;;;;;8.45;1.20;;;;;;;6.27;100.00;101922.56;5110471;28;20031;-67
2023/03/15 08:50:00;;;;;;;8.25;1.70;;;;;;;6.57;100.00;101916.50;5110545;28;20027;-68
2023/03/15 08:52:26;;;;;;;7.05;1.58;;;;;;;6.57;100.00;101923.56;5110196;28;20035;-67
2023/03/15 08:54:51;;;;;;;4.30;1.63;;;;;;;6.78;100.00;101921.53;5110396;28;20043;-67
2023/03/15 08:57:16;;;;;;;10.50;1.58;;;;;;;6.70;100.00;101924.56;5109987;28;20029;-67
2023/03/15 08:59:42;;;;;;;6.43;1.50;;;;;;;6.76;100.00;101924.22;5109742;28;20039;-70
2023/03/15 09:02:10;;;;;;;4.53;1.33;;;;;;;6.98;100.00;101912.41;5110195;28;20055;-68
2023/03/15 09:04:36;;;;;;;5.85;1.77;;;;;;;8.05;100.00;101917.47;5108931;28;20110;-68
2023/03/15 09:07:01;;;;;;;7.00;1.23;;;;;;;8.85;100.00;101919.47;5109914;28;20118;-69
2023/03/15 09:09:27;;;;;;;6.60;1.23;;;;;;;10.21;83.84;101919.84;5104387;28;20024;-69
2023/03/15 09:11:52;;;;;;;7.80;1.33;;;;;;;11.71;69.20;101905.16;5111465;28;20103;-69
2023/03/15 09:14:17;;;;;;;5.68;1.48;;;;;;;12.97;61.98;101903.00;5112445;28;20074;-69
2023/03/15 09:16:43;;;;;;;7.00;1.48;;;;;;;13.85;55.72;101898.19;5112619;28;20032;-69
2023/03/15 09:19:08;;;;;;;7.60;1.52;;;;;;;14.18;59.59;101896.19;5112794;28;20059;-69
2023/03/15 09:21:33;;;;;;;5.50;1.40;;;;;;;14.67;53.59;101904.31;5112837;28;20097;-69
2023/03/15 09:23:59;;;;;;;7.32;1.63;;;;;;;14.97;51.05;101895.31;5112093;28;20059;-69
2023/03/15 09:26:24;;;;;;;12.32;1.90;;;;;;;15.85;46.42;101895.09;5112926;28;20024;-69
2023/03/15 09:28:49;;;;;;;5.93;1.58;;;;;;;15.05;45.37;101899.94;5112503;28;20536;-69
2023/03/15 09:31:15;;;;;;;6.47;1.30;;;;;;;14.98;45.32;101902.31;5112477;28;20035;-70
2023/03/15 09:33:40;;;;;;;4.80;1.50;;;;;;;15.06;45.74;101904.31;5112391;28;20112;-71
2023/03/15 09:36:06;;;;;;;5.72;1.50;;;;;;;15.15;47.42;101902.59;5094426;28;20034;-70
2023/03/15 09:38:31;;;;;;;5.45;1.50;;;;;;;15.47;46.08;101915.66;5113110;28;20032;-69
2023/03/15 09:40:58;;;;;;;9.75;2.13;;;;;;;15.18;45.75;101910.34;5111980;28;20043;-69
2023/03/15 09:43:42;;;;;;;11.85;2.17;;;;;;;15.31;41.47;101918.09;5112631;28;20032;-68
2023/03/15 09:46:26;;;;;;;5.18;1.33;;;;;;;14.77;43.67;101913.19;5112685;28;20023;-69
2023/03/15 09:49:11;;;;;;;6.72;1.63;;;;;;;15.05;43.02;101907.97;5112308;28;20116;-69
2023/03/15 09:51:50;;;;;;;7.35;1.35;;;;;;;15.21;41.84;101903.88;5112696;28;20028;-69
2023/03/15 09:54:34;;;;;;;5.47;1.27;;;;;;;15.77;36.99;101916.41;5112682;28;20104;-69
2023/03/15 09:57:10;;;;;;;5.65;1.42;;;;;;;15.80;39.49;101910.78;5112252;28;20065;-69
2023/03/15 09:59:42;;;;;;;5.57;1.10;;;;;;;15.28;35.44;101913.03;5112430;28;20027;-69
2023/03/15 10:02:18;;;;;;;7.75;1.60;;;;;;;15.52;36.17;101913.41;5112110;28;20055;-69
2023/03/15 10:04:46;;;;;;;8.65;1.55;;;;;;;16.01;38.13;101920.44;5112388;28;20027;-69
2023/03/15 10:07:14;;;;;;;6.78;1.60;;;;;;;15.90;39.05;101913.44;5112399;28;20035;-69
2023/03/15 10:09:39;;;;;;;8.57;1.50;;;;;;;16.27;38.88;101925.97;5112133;28;20406;-69
2023/03/15 10:12:10;;;;;;;4.82;1.55;;;;;;;16.35;39.72;101927.91;5112051;28;20061;-69
2023/03/15 10:14:54;;;;;;;6.90;1.15;;;;;;;16.42;38.33;101920.06;5112404;28;20031;-69
2023/03/15 10:17:48;;;;;;;7.22;1.20;;;;;;;16.45;38.04;101928.69;5112185;28;20023;-69
2023/03/15 10:20:35;;;;;;;7.20;1.50;;;;;;;16.47;39.32;101933.91;5112205;28;20024;-69
2023/03/15 10:24:00;;;;;;;9.07;1.52;;;;;;;16.64;37.23;101940.28;5111485;28;20039;-69
2023/03/15 10:26:31;;;;;;;8.18;1.27;;;;;;;16.67;33.41;101942.66;5049198;28;20076;-69
2023/03/15 10:28:56;;;;;;;5.78;1.17;;;;;;;17.12;33.66;101947.13;5048878;28;20120;-69
2023/03/15 10:31:26;;;;;;;5.57;1.65;;;;;;;16.71;36.65;101949.44;5066368;28;20126;-69
2023/03/15 10:33:53;;;;;;;7.57;1.20;;;;;;;16.55;36.39;101950.94;5092470;28;20115;-68
2023/03/15 10:36:22;;;;;;;5.47;1.45;;;;;;;16.59;38.75;101959.56;5092911;28;20122;-68
2023/03/15 10:38:49;;;;;;;5.15;1.48;;;;;;;16.67;35.70;101953.41;5092625;28;20032;-70
2023/03/15 10:41:48;;;;;;;6.80;1.35;;;;;;;16.72;37.67;101959.19;5092322;28;20077;-72
2023/03/15 10:44:15;;;;;;;4.40;1.30;;;;;;;15.66;36.27;101959.53;5057686;28;20044;-69
2023/03/15 10:46:40;;;;;;;5.88;1.20;;;;;;;15.62;37.16;101960.81;5092179;28;20044;-69
2023/03/15 10:49:14;;;;;;;3.85;1.25;;;;;;;15.50;36.49;101965.50;5091967;28;20035;-69
2023/03/15 10:51:43;;;;;;;4.65;1.15;;;;;;;14.87;37.15;101969.47;5092372;28;20032;-70
2023/03/15 10:54:22;;;;;;;3.20;1.10;;;;;;;15.44;38.52;101968.75;5091359;28;20038;-69
2023/03/15 10:57:17;;;;;;;4.35;0.98;;;;;;;15.20;36.22;101979.91;5092279;28;20062;-70
2023/03/15 11:00:22;;;;;;;3.85;1.25;;;;;;;15.15;33.07;101978.50;5092499;28;20051;-69
2023/03/15 11:02:50;;;;;;;6.82;1.40;;;;;;;14.36;36.69;101983.84;5083121;28;20499;-68
2023/03/15 11:05:17;;;;;;;3.40;1.25;;;;;;;14.11;39.86;101988.69;5091133;28;20070;-70
2023/03/15 11:07:59;;;;;;;5.28;1.20;;;;;;;13.85;38.28;101989.16;5090683;28;20579;-68
2023/03/15 11:10:33;;;;;;;7.50;1.33;;;;;;;13.40;40.51;101981.38;5091858;28;20047;-68
2023/03/15 11:13:11;;;;;;;5.45;1.58;;;;;;;13.33;39.18;101985.50;5091314;28;20028;-68
2023/03/15 11:15:38;;;;;;;5.20;1.50;;;;;;;13.31;42.54;101982.13;5091805;28;20028;-68
2023/03/15 11:18:04;;;;;;;8.90;1.55;;;;;;;13.92;40.29;101987.63;5090813;28;20089;-68
2023/03/15 11:20:35;;;;;;;11.80;1.58;;;;;;;13.88;38.72;101983.53;5091663;28;20036;-68
2023/03/15 11:23:14;;;;;;;8.93;1.70;;;;;;;13.32;43.03;101983.84;5094121;28;20031;-68